Pagina principală
METAR-TAF:

METAR-TAF

Aeroporturi :

Vancouver, Columbia Britanică, Canada

Latitudine: 49-11N, longitudine: 123-10W, elevație: 3 m

Observații meteo curente

Raportul a fost făcut în urmă cu 1 oră și 4 de minute, la 08:00 UTC
Vânt calm
Temperatură 14°C
Umiditate 100%
Presiune 1015 hPa
Vizibilitate: 32.2 km
Cer senin

METAR: CYVR 200800Z 00000KT 20SM SKC 14/14 A2998 RMK SLP154

Ora: 02:04 (09:04 UTC)

Prognoză

Raportul a fost făcut în urmă cu 24 de minute, la 08:40 UTC
Prognoză valabilă de la 20 ora 09 UTC la 21 ora 12 UTC
Vânt 3 kt din direcții variabile
Vizibilitate: 10 km
Cer senin
Devenind
de la 20 ora 14 UTC la 20 ora 16 UTC
Vânt 10 kt de la Vest
Devenind
de la 21 ora 05 UTC la 21 ora 07 UTC
Vânt 5 kt de la Est

TAF: CYVR 200840Z 2009/2112 VRB03KT P6SM SKC BECMG 2014/2016 28010KT BECMG 2105/2107 09005KT RMK NXT FCST BY 201200Z

Observații și prognoze meteo pentru peste 4.000 de aeroporturi (rapoarte METAR și TAF).

Stațiile disponibile sunt reprezentate pe hartă prin puncte galbene și roșii.

Țineți indicatorul mouse-ului pe punctul dorit pentru a vedea denumirea stației.

Apoi, faceți clic pentru a vedea observațiile și prognozele meteorologice.

Pentru a schimba harta: Pentru mărire, faceți clic pe butoanele verzi cu cruce neagră; pentru micșorare, pe butonul verde cu o liniuță; pentru hărți învecinate, pe săgețile verzi.


METAR-TAF: